Roosevelt Corner, California
Current Conditions -  °F | °C
As of 12:58 AM on Thursday 23 Oct 2014 (Local Time) from KEDW Reporting Station
Clear Clear  
Wind Chill: 51°   Ceiling: Unl
Heat Index: 51°   Visibility: 10mi
Dew Point: 28°   Wind: 5mph
Humidity: 40%   Direction: 240°WSW
Pressure: 30.05"   Gusts: NA
Location:  34.7192°N, 117.884°W
Report Text: KEDW 230758Z AUTO 24004KT 10SM CLR 11/M02 A3005 RMK AO2 SLP164 T01071024 402680066
Loading
Personal Weather Stations






























Interactive Weather Map
Tropical Storm Tracking
New forecast layout! Learn more

10-Day Weather Forecast

Advertisements
Track Severe Weather on mobile